Time;durP1;ratioP1;P1;durP2;ratioP2;P2;SDS_P1;SDS_P2;PMS_P1;PMS_P2;Temp;Humidity;BMP_temperature;BMP_pressure;BME280_temperature;BME280_humidity;BME280_pressure;Samples;Min_cycle;Max_cycle;Signal;HPM_P1;HPM_P2
2022/06/28 00:02:13;;;;;;;2.67;1.38;;;16.90;60.80;;;;;;4912561;29;20539;-50
2022/06/28 00:04:48;;;;;;;1.80;1.65;;;16.90;60.70;;;;;;4913442;29;20039;-48
2022/06/28 00:07:14;;;;;;;2.63;2.00;;;16.80;60.70;;;;;;4910178;29;20112;-48
2022/06/28 00:09:41;;;;;;;4.35;1.63;;;16.80;60.70;;;;;;4909621;29;20091;-49
2022/06/28 00:12:08;;;;;;;2.28;2.08;;;16.80;60.90;;;;;;4913529;29;20040;-51
2022/06/28 00:17:21;;;;;;;1.88;1.50;;;16.70;61.00;;;;;;4912180;29;20040;-50
2022/06/28 00:19:49;;;;;;;3.60;1.55;;;16.60;61.00;;;;;;4906512;29;20107;-50
2022/06/28 00:22:16;;;;;;;3.00;1.67;;;16.60;61.10;;;;;;4912796;29;20119;-52
2022/06/28 00:24:46;;;;;;;2.20;1.80;;;16.60;61.20;;;;;;4913392;29;20107;-51
2022/06/28 00:27:13;;;;;;;2.92;1.75;;;16.60;61.20;;;;;;4908370;29;20048;-49
2022/06/28 00:29:40;;;;;;;2.50;1.88;;;16.50;61.20;;;;;;4903616;29;20440;-48
2022/06/28 00:32:10;;;;;;;6.53;2.88;;;16.50;61.40;;;;;;4900749;29;20527;-48
2022/06/28 00:34:38;;;;;;;2.95;1.80;;;16.50;61.30;;;;;;4892256;29;20094;-49
2022/06/28 00:37:05;;;;;;;3.30;2.03;;;16.50;61.30;;;;;;4898333;29;20044;-50
2022/06/28 00:39:32;;;;;;;4.38;2.15;;;16.40;61.20;;;;;;4910470;29;20524;-53
2022/06/28 00:41:59;;;;;;;2.80;2.17;;;16.40;61.20;;;;;;4905245;29;20100;-48
2022/06/28 00:44:29;;;;;;;2.50;2.13;;;16.40;61.30;;;;;;4910974;29;20067;-51
2022/06/28 00:46:57;;;;;;;3.35;1.92;;;16.40;61.40;;;;;;4907047;29;20413;-48
2022/06/28 00:49:27;;;;;;;3.20;2.38;;;16.30;61.40;;;;;;4912994;29;20040;-51
2022/06/28 00:52:04;;;;;;;2.95;1.75;;;16.30;61.40;;;;;;4912568;29;20571;-53
2022/06/28 00:54:39;;;;;;;2.92;2.33;;;16.30;61.50;;;;;;4895799;29;20044;-51
2022/06/28 00:57:16;;;;;;;3.47;2.10;;;16.30;61.40;;;;;;4906143;29;20509;-48
2022/06/28 00:59:45;;;;;;;3.05;2.03;;;16.20;61.40;;;;;;4916362;29;20044;-47
2022/06/28 01:02:13;;;;;;;2.67;2.35;;;16.20;61.50;;;;;;4911906;29;20059;-53
2022/06/28 01:04:41;;;;;;;2.45;2.25;;;16.20;61.50;;;;;;4891370;29;20048;-47
2022/06/28 01:07:08;;;;;;;5.05;2.10;;;16.20;61.50;;;;;;4904873;29;20044;-52
2022/06/28 01:09:37;;;;;;;2.80;2.50;;;16.10;61.50;;;;;;4905829;29;20606;-48
2022/06/28 01:12:06;;;;;;;3.30;2.15;;;16.10;61.50;;;;;;4912437;29;20111;-50
2022/06/28 01:14:40;;;;;;;5.28;2.47;;;16.10;61.60;;;;;;4894772;29;20115;-53
2022/06/28 01:17:27;;;;;;;2.80;2.50;;;16.10;61.90;;;;;;4900026;29;20050;-49
2022/06/28 01:20:15;;;;;;;4.43;2.20;;;16.00;61.90;;;;;;4918779;29;20047;-48
2022/06/28 01:23:01;;;;;;;3.80;2.47;;;16.00;61.60;;;;;;4913154;29;20054;-48
2022/06/28 01:25:30;;;;;;;3.97;2.38;;;16.00;61.60;;;;;;4897421;29;20044;-51
2022/06/28 01:28:05;;;;;;;4.38;2.40;;;16.00;61.60;;;;;;4903040;29;20067;-51
2022/06/28 01:30:32;;;;;;;5.68;2.55;;;16.00;62.00;;;;;;4911957;29;20048;-48
2022/06/28 01:33:03;;;;;;;5.60;2.42;;;15.90;61.80;;;;;;4896275;29;20048;-52
2022/06/28 01:35:33;;;;;;;3.58;2.25;;;15.90;61.90;;;;;;4895572;29;20100;-47
2022/06/28 01:38:05;;;;;;;5.18;2.38;;;15.90;61.80;;;;;;4917558;29;20465;-51
2022/06/28 01:40:34;;;;;;;5.65;2.42;;;15.80;61.60;;;;;;4895525;29;20127;-49
2022/06/28 01:43:01;;;;;;;8.43;3.50;;;15.80;61.50;;;;;;4890329;29;20056;-47
2022/06/28 01:45:32;;;;;;;3.15;2.47;;;15.80;61.50;;;;;;4901328;29;20044;-48
2022/06/28 01:48:09;;;;;;;3.03;2.13;;;15.70;61.50;;;;;;4915355;29;20821;-49
2022/06/28 01:50:57;;;;;;;4.88;2.30;;;15.70;61.60;;;;;;4877073;29;20076;-47
2022/06/28 01:53:27;;;;;;;8.57;2.90;;;15.70;61.50;;;;;;4890166;29;20130;-50
2022/06/28 01:56:07;;;;;;;4.97;2.60;;;15.60;61.30;;;;;;4911944;29;20044;-49
2022/06/28 01:58:54;;;;;;;4.25;2.35;;;15.60;61.30;;;;;;4917217;29;20050;-47
2022/06/28 02:01:28;;;;;;;3.70;2.40;;;15.60;61.40;;;;;;4898905;29;20037;-50
2022/06/28 02:03:59;;;;;;;5.60;3.00;;;15.50;61.60;;;;;;4912634;29;20512;-51
2022/06/28 02:06:35;;;;;;;4.57;2.42;;;15.50;61.90;;;;;;4908790;29;20056;-51
2022/06/28 02:09:08;;;;;;;5.68;2.55;;;15.40;61.80;;;;;;4913425;29;20071;-53
2022/06/28 02:11:51;;;;;;;3.83;2.10;;;15.40;61.90;;;;;;4906120;29;20120;-50
2022/06/28 02:14:24;;;;;;;6.68;2.67;;;15.40;62.00;;;;;;4919317;29;20036;-49
2022/06/28 02:16:57;;;;;;;3.00;2.20;;;15.40;62.00;;;;;;4914952;29;20047;-53
2022/06/28 02:19:31;;;;;;;3.78;2.38;;;15.40;62.20;;;;;;4897469;29;20048;-50
2022/06/28 02:21:58;;;;;;;3.53;2.35;;;15.30;62.20;;;;;;4910720;29;20393;-50
2022/06/28 02:24:30;;;;;;;4.47;2.58;;;15.30;62.20;;;;;;4915133;29;20405;-51
2022/06/28 02:27:00;;;;;;;5.75;2.55;;;15.30;62.40;;;;;;4913268;29;20504;-51
2022/06/28 02:29:28;;;;;;;5.13;2.97;;;15.30;62.30;;;;;;4907197;29;20056;-48
2022/06/28 02:31:59;;;;;;;4.38;2.90;;;15.30;62.40;;;;;;4913667;29;20505;-50
2022/06/28 02:42:45;;;;;;;4.68;2.55;;;15.20;62.50;;;;;;4914348;29;20621;-49
2022/06/28 02:45:19;;;;;;;7.45;2.85;;;15.20;62.40;;;;;;4915000;29;20044;-50
2022/06/28 02:47:48;;;;;;;6.20;2.95;;;15.20;62.70;;;;;;4895377;29;20049;-47
2022/06/28 02:50:15;;;;;;;5.47;2.80;;;15.20;62.60;;;;;;4911233;29;20492;-47
2022/06/28 02:52:42;;;;;;;3.78;2.65;;;15.10;62.50;;;;;;4906851;29;20099;-47
2022/06/28 02:55:15;;;;;;;4.78;2.65;;;15.10;62.50;;;;;;4912420;29;20040;-47
2022/06/28 02:57:46;;;;;;;3.08;2.47;;;15.10;62.60;;;;;;4896700;29;20048;-48
2022/06/28 03:00:16;;;;;;;4.75;2.92;;;15.10;62.60;;;;;;4902083;29;20564;-52
2022/06/28 03:02:44;;;;;;;5.85;2.40;;;15.10;62.70;;;;;;4906938;29;20198;-49
2022/06/28 03:05:16;;;;;;;5.18;2.63;;;15.10;62.60;;;;;;4912522;29;20186;-48
2022/06/28 03:07:44;;;;;;;3.95;2.42;;;15.10;62.80;;;;;;4908580;29;20142;-49
2022/06/28 03:10:13;;;;;;;5.78;2.45;;;15.00;62.70;;;;;;4911034;29;20115;-47
2022/06/28 03:12:42;;;;;;;7.75;2.67;;;15.00;62.80;;;;;;4909770;29;20150;-49
2022/06/28 03:15:11;;;;;;;8.25;2.88;;;14.90;62.60;;;;;;4898231;29;20083;-55
2022/06/28 03:17:41;;;;;;;4.47;2.58;;;15.00;62.70;;;;;;4895274;29;20044;-48
2022/06/28 03:20:15;;;;;;;3.17;2.13;;;15.00;62.80;;;;;;4911634;29;20047;-47
2022/06/28 03:22:42;;;;;;;7.38;2.58;;;15.00;62.80;;;;;;4903730;29;20052;-48
2022/06/28 03:25:10;;;;;;;5.13;2.65;;;15.00;62.70;;;;;;4897673;29;20056;-55
2022/06/28 03:27:38;;;;;;;3.95;2.55;;;14.90;62.70;;;;;;4906155;29;20099;-48
2022/06/28 03:30:11;;;;;;;7.30;2.85;;;14.90;62.70;;;;;;4906234;29;20464;-51
2022/06/28 03:32:42;;;;;;;11.55;3.38;;;14.90;62.80;;;;;;4909528;29;20052;-48
2022/06/28 03:35:20;;;;;;;11.93;3.53;;;14.80;62.70;;;;;;4904798;29;20055;-47
2022/06/28 03:37:47;;;;;;;9.40;3.58;;;14.90;62.90;;;;;;4899041;29;20052;-48
2022/06/28 03:40:19;;;;;;;5.68;2.33;;;14.90;62.80;;;;;;4896028;29;20082;-47
2022/06/28 03:42:56;;;;;;;8.43;2.67;;;14.80;62.70;;;;;;4897682;29;20055;-50
2022/06/28 03:45:33;;;;;;;8.10;2.58;;;14.80;63.00;;;;;;4894272;29;20747;-47
2022/06/28 03:48:27;;;;;;;6.80;3.08;;;14.80;63.00;;;;;;4912903;29;20055;-50
2022/06/28 03:51:13;;;;;;;5.47;2.78;;;14.80;63.00;;;;;;4913347;29;20142;-48
2022/06/28 03:54:03;;;;;;;7.35;2.50;;;14.80;63.10;;;;;;4911945;29;20054;-48
2022/06/28 03:56:40;;;;;;;12.05;2.35;;;14.80;63.20;;;;;;4896158;29;20048;-50
2022/06/28 03:59:09;;;;;;;15.48;4.05;;;14.80;63.30;;;;;;4897310;29;20040;-47
2022/06/28 04:01:36;;;;;;;12.60;3.05;;;14.80;63.30;;;;;;4923235;29;20124;-50
2022/06/28 04:04:03;;;;;;;12.38;3.60;;;14.80;63.50;;;;;;4890257;29;20092;-47
2022/06/28 04:06:31;;;;;;;7.78;2.90;;;14.80;63.70;;;;;;4913232;29;20135;-48
2022/06/28 04:09:05;;;;;;;9.63;2.83;;;14.80;63.80;;;;;;4914545;29;20048;-48
2022/06/28 04:11:40;;;;;;;4.93;2.42;;;14.80;63.80;;;;;;4913950;29;20071;-47
2022/06/28 04:14:13;;;;;;;5.00;2.30;;;14.90;64.10;;;;;;4909181;29;20049;-48
2022/06/28 04:16:42;;;;;;;6.20;2.90;;;14.90;64.10;;;;;;4913187;29;20040;-47
2022/06/28 04:19:21;;;;;;;3.58;1.98;;;14.90;64.50;;;;;;4913310;29;20135;-49
2022/06/28 04:21:48;;;;;;;3.40;2.30;;;14.90;64.60;;;;;;4910253;29;20040;-47
2022/06/28 04:24:19;;;;;;;3.20;2.70;;;15.00;64.60;;;;;;4911695;29;20040;-50
2022/06/28 04:26:58;;;;;;;4.53;2.50;;;15.00;64.80;;;;;;4898732;29;20524;-47
2022/06/28 04:29:27;;;;;;;6.13;2.88;;;15.00;65.00;;;;;;4919515;29;20048;-49
2022/06/28 04:31:55;;;;;;;4.60;2.40;;;15.00;65.10;;;;;;4892600;29;20048;-46
2022/06/28 04:34:22;;;;;;;5.10;2.35;;;15.10;65.30;;;;;;4911833;29;20107;-48
2022/06/28 04:36:54;;;;;;;3.75;2.03;;;15.10;65.40;;;;;;4920174;29;20195;-47
2022/06/28 04:39:21;;;;;;;2.70;2.50;;;15.20;65.60;;;;;;4906705;29;20041;-49
2022/06/28 04:42:05;;;;;;;4.28;2.88;;;15.20;65.90;;;;;;4893810;29;20040;-47
2022/06/28 04:44:35;;;;;;;3.88;2.72;;;15.30;66.00;;;;;;4922241;29;20107;-51
2022/06/28 04:47:02;;;;;;;2.78;2.28;;;15.30;66.10;;;;;;4920303;29;20048;-47
2022/06/28 04:49:31;;;;;;;2.72;2.53;;;15.40;66.40;;;;;;4895206;29;20063;-50
2022/06/28 04:51:58;;;;;;;6.45;3.15;;;15.40;66.60;;;;;;4892575;29;20131;-47
2022/06/28 04:54:31;;;;;;;3.92;3.33;;;15.50;67.20;;;;;;4895727;29;20518;-49
2022/06/28 04:57:26;;;;;;;3.08;2.65;;;15.50;67.50;;;;;;4899833;29;20068;-49
2022/06/28 05:00:22;;;;;;;3.10;2.78;;;15.60;67.70;;;;;;4902468;29;20503;-49
2022/06/28 05:03:15;;;;;;;3.42;2.83;;;15.70;67.90;;;;;;4912481;29;20091;-48
2022/06/28 05:06:04;;;;;;;3.83;2.47;;;15.80;67.90;;;;;;4898063;29;20487;-48
2022/06/28 05:08:33;;;;;;;3.55;2.72;;;15.90;68.10;;;;;;4905773;29;20044;-48
2022/06/28 05:11:02;;;;;;;3.63;2.63;;;15.90;68.30;;;;;;4909823;29;20056;-48
2022/06/28 05:13:39;;;;;;;3.80;2.33;;;16.00;68.50;;;;;;4900335;29;20048;-49
2022/06/28 05:16:09;;;;;;;4.25;2.97;;;16.10;68.60;;;;;;4903791;29;20051;-50
2022/06/28 05:18:36;;;;;;;4.28;2.53;;;16.20;68.80;;;;;;4910033;29;20049;-50
2022/06/28 05:21:05;;;;;;;5.43;2.17;;;16.30;68.90;;;;;;4911676;29;20040;-48
2022/06/28 05:23:36;;;;;;;3.17;2.50;;;16.30;68.90;;;;;;4912106;29;20047;-50
2022/06/28 05:26:31;;;;;;;3.92;2.78;;;16.40;68.70;;;;;;4906581;29;20103;-50
2022/06/28 05:29:11;;;;;;;5.53;2.33;;;16.50;68.50;;;;;;4895431;29;20135;-48
2022/06/28 05:31:38;;;;;;;3.42;2.22;;;16.50;68.40;;;;;;4917814;29;20040;-48
2022/06/28 05:34:05;;;;;;;2.17;1.98;;;16.60;68.30;;;;;;4894959;29;20520;-48
2022/06/28 05:36:32;;;;;;;3.63;2.20;;;16.70;68.20;;;;;;4904673;29;20107;-49
2022/06/28 05:38:58;;;;;;;4.68;2.08;;;16.70;68.20;;;;;;4902613;29;20055;-47
2022/06/28 05:41:25;;;;;;;3.80;2.05;;;16.80;68.10;;;;;;4905670;29;20106;-49
2022/06/28 05:43:55;;;;;;;1.98;1.75;;;16.90;68.00;;;;;;4914105;29;20090;-49
2022/06/28 05:46:21;;;;;;;3.03;2.13;;;17.00;67.70;;;;;;4893369;29;20086;-48
2022/06/28 05:48:48;;;;;;;5.00;2.33;;;17.00;67.50;;;;;;4915041;29;20040;-50
2022/06/28 05:51:16;;;;;;;3.78;2.17;;;17.10;67.30;;;;;;4915415;29;20048;-49
2022/06/28 05:53:43;;;;;;;3.33;2.25;;;17.20;67.40;;;;;;4903525;29;20055;-50
2022/06/28 05:56:10;;;;;;;3.10;2.08;;;17.20;67.80;;;;;;4898795;29;20044;-48
2022/06/28 05:58:37;;;;;;;5.63;2.53;;;17.30;67.20;;;;;;4907654;29;20033;-48
2022/06/28 06:01:05;;;;;;;2.25;1.90;;;17.30;66.80;;;;;;4913136;29;20123;-47
2022/06/28 06:03:32;;;;;;;5.47;2.33;;;17.40;66.80;;;;;;4912968;29;20036;-53
2022/06/28 06:06:00;;;;;;;3.20;1.63;;;17.40;66.60;;;;;;4921112;29;20083;-49
2022/06/28 06:08:28;;;;;;;2.67;2.08;;;17.50;66.40;;;;;;4890151;29;20416;-48
2022/06/28 06:10:55;;;;;;;5.18;2.75;;;17.50;66.30;;;;;;4913889;29;20056;-50
2022/06/28 06:13:21;;;;;;;2.50;1.70;;;17.60;66.50;;;;;;4910405;29;20059;-49
2022/06/28 06:15:48;;;;;;;2.25;1.58;;;17.60;66.20;;;;;;4912400;29;20492;-51
2022/06/28 06:18:15;;;;;;;2.60;1.60;;;17.70;66.00;;;;;;4914780;29;20048;-47
2022/06/28 06:20:42;;;;;;;2.53;1.27;;;17.70;65.90;;;;;;4896858;29;20533;-50
2022/06/28 06:23:08;;;;;;;2.55;1.75;;;17.70;65.60;;;;;;4898140;29;20523;-50
2022/06/28 06:25:59;;;;;;;3.83;1.95;;;17.80;65.50;;;;;;4911586;29;20527;-53
2022/06/28 06:28:27;;;;;;;2.60;2.13;;;17.80;65.20;;;;;;4926555;29;20540;-49
2022/06/28 06:30:53;;;;;;;2.53;1.98;;;17.90;65.00;;;;;;4897035;29;20504;-49
2022/06/28 06:33:40;;;;;;;4.80;1.50;;;17.90;65.00;;;;;;4911626;29;20127;-48
2022/06/28 06:36:14;;;;;;;1.95;1.25;;;18.00;64.90;;;;;;4907244;29;20052;-49
2022/06/28 06:38:42;;;;;;;3.38;1.50;;;18.00;64.60;;;;;;4917590;29;20040;-49
2022/06/28 06:41:09;;;;;;;3.22;1.55;;;18.10;64.90;;;;;;4912986;29;20508;-50
2022/06/28 06:43:39;;;;;;;2.63;1.42;;;18.20;64.60;;;;;;4904716;29;20128;-49
2022/06/28 06:46:14;;;;;;;1.67;1.33;;;18.10;64.70;;;;;;4920662;29;20052;-49
2022/06/28 06:48:50;;;;;;;3.60;1.70;;;18.20;64.70;;;;;;4914481;29;20123;-50
2022/06/28 06:51:17;;;;;;;3.47;1.33;;;18.20;64.10;;;;;;4910576;29;20040;-50
2022/06/28 06:53:44;;;;;;;3.15;1.45;;;18.20;63.60;;;;;;4903136;29;20044;-48
2022/06/28 06:56:11;;;;;;;2.25;0.70;;;18.30;63.90;;;;;;4912171;29;20036;-49
2022/06/28 06:58:38;;;;;;;2.65;0.77;;;18.30;63.70;;;;;;4927722;29;20052;-51
2022/06/28 07:01:05;;;;;;;3.80;0.77;;;18.40;63.70;;;;;;4905794;29;20135;-49
2022/06/28 07:03:53;;;;;;;2.05;0.60;;;18.40;63.30;;;;;;4911120;29;20044;-51
2022/06/28 07:06:20;;;;;;;6.35;0.95;;;18.50;63.00;;;;;;4905243;29;20056;-50
2022/06/28 07:08:47;;;;;;;1.88;0.80;;;18.50;62.10;;;;;;4910771;29;20103;-49
2022/06/28 07:11:15;;;;;;;0.45;0.32;;;18.60;61.70;;;;;;4888740;29;20051;-50
2022/06/28 07:13:44;;;;;;;1.40;0.63;;;18.60;60.90;;;;;;4908967;29;20052;-51
2022/06/28 07:16:11;;;;;;;2.03;0.70;;;18.60;60.80;;;;;;4903386;29;20150;-52
2022/06/28 07:18:39;;;;;;;0.68;0.55;;;18.70;60.80;;;;;;4914882;29;20111;-49
2022/06/28 07:21:05;;;;;;;1.10;0.50;;;18.70;60.10;;;;;;4912827;29;20044;-49
2022/06/28 07:23:32;;;;;;;1.42;0.75;;;18.80;60.10;;;;;;4897707;29;20040;-52
2022/06/28 07:25:59;;;;;;;1.75;0.50;;;18.80;60.10;;;;;;4913442;29;20066;-50
2022/06/28 07:28:26;;;;;;;2.83;0.82;;;18.90;59.40;;;;;;4917738;29;20138;-48
2022/06/28 07:30:53;;;;;;;3.53;0.80;;;18.90;59.30;;;;;;4902493;29;20055;-49
2022/06/28 07:33:21;;;;;;;1.70;0.63;;;19.00;59.20;;;;;;4899983;29;20143;-51
2022/06/28 07:35:48;;;;;;;2.28;0.75;;;19.00;59.10;;;;;;4906110;29;20104;-50
2022/06/28 07:38:15;;;;;;;2.20;0.93;;;19.10;58.80;;;;;;4905814;29;20044;-50
2022/06/28 07:41:14;;;;;;;1.73;0.60;;;19.10;59.30;;;;;;4880525;29;20051;-50
2022/06/28 07:43:52;;;;;;;1.05;0.50;;;19.20;59.40;;;;;;4911777;29;20052;-49
2022/06/28 07:46:23;;;;;;;0.80;0.47;;;19.20;59.30;;;;;;4900688;29;20059;-49
2022/06/28 07:48:50;;;;;;;1.35;1.23;;;19.30;59.10;;;;;;4895885;29;20052;-49
2022/06/28 07:54:05;;;;;;;2.38;0.47;;;19.40;57.90;;;;;;4913221;29;20056;-49
2022/06/28 07:56:55;;;;;;;2.17;1.10;;;19.40;57.80;;;;;;4917760;29;20047;-48
2022/06/28 07:59:22;;;;;;;1.17;0.30;;;19.50;57.90;;;;;;4904943;29;20045;-49
2022/06/28 08:01:50;;;;;;;1.17;0.63;;;19.50;57.80;;;;;;4900515;29;20054;-48
2022/06/28 08:04:21;;;;;;;1.65;0.55;;;19.50;57.60;;;;;;4880024;29;20087;-52
2022/06/28 08:06:50;;;;;;;2.15;0.57;;;19.60;57.90;;;;;;4885753;29;20834;-50
2022/06/28 08:09:20;;;;;;;1.13;0.40;;;19.60;58.30;;;;;;4917275;29;20589;-51
2022/06/28 08:11:48;;;;;;;1.40;0.52;;;19.70;58.70;;;;;;4900135;29;20508;-49
2022/06/28 08:14:19;;;;;;;0.98;0.40;;;19.80;58.70;;;;;;4909110;29;20067;-49
2022/06/28 08:16:46;;;;;;;1.08;0.60;;;19.90;58.70;;;;;;4890664;29;20109;-52
2022/06/28 08:19:15;;;;;;;1.98;0.52;;;19.90;58.00;;;;;;4904133;29;20063;-48
2022/06/28 08:21:42;;;;;;;3.00;0.63;;;19.90;58.10;;;;;;4901078;29;20600;-50
2022/06/28 08:24:09;;;;;;;1.92;0.70;;;20.00;58.30;;;;;;4913768;29;20036;-49
2022/06/28 08:26:42;;;;;;;1.77;0.50;;;20.00;58.40;;;;;;4889749;29;20104;-50
2022/06/28 08:29:13;;;;;;;3.17;0.45;;;20.10;57.20;;;;;;4912147;29;20072;-50
2022/06/28 08:31:40;;;;;;;1.08;0.47;;;20.10;57.60;;;;;;4913449;29;20396;-49
2022/06/28 08:34:08;;;;;;;2.38;0.40;;;20.20;57.10;;;;;;4911802;29;20055;-48
2022/06/28 08:36:35;;;;;;;0.93;0.30;;;20.20;57.50;;;;;;4908601;29;20048;-50
2022/06/28 08:39:03;;;;;;;2.60;0.60;;;20.30;57.60;;;;;;4908250;29;20064;-50
2022/06/28 08:41:32;;;;;;;2.03;0.50;;;20.40;57.40;;;;;;4912884;29;20036;-49
2022/06/28 08:43:59;;;;;;;1.35;0.50;;;20.40;57.10;;;;;;4913973;29;20044;-49
2022/06/28 08:46:26;;;;;;;1.25;0.30;;;20.50;58.00;;;;;;4904176;29;20724;-48
2022/06/28 08:49:03;;;;;;;2.63;0.47;;;20.60;56.50;;;;;;4914659;29;20071;-49
2022/06/28 08:51:33;;;;;;;1.98;0.43;;;20.60;56.00;;;;;;4910144;29;20040;-49
2022/06/28 08:54:01;;;;;;;3.17;0.88;;;20.70;55.80;;;;;;4909932;29;20052;-48
2022/06/28 08:56:29;;;;;;;2.00;0.47;;;20.80;55.50;;;;;;4909085;29;20051;-50
2022/06/28 08:58:58;;;;;;;1.83;0.50;;;20.80;54.90;;;;;;4906325;29;20123;-51
2022/06/28 09:01:26;;;;;;;0.55;0.40;;;20.90;54.90;;;;;;4912714;29;20052;-51
2022/06/28 09:03:55;;;;;;;2.78;1.20;;;20.90;55.70;;;;;;4900732;29;20125;-48
2022/06/28 09:06:23;;;;;;;3.08;0.52;;;20.90;56.20;;;;;;4905521;29;20123;-49
2022/06/28 09:08:50;;;;;;;0.98;0.50;;;21.00;56.30;;;;;;4913002;29;20048;-51
2022/06/28 09:11:17;;;;;;;1.88;0.60;;;21.00;56.20;;;;;;4908097;29;20527;-50
2022/06/28 09:13:44;;;;;;;1.27;0.40;;;21.10;55.60;;;;;;4913803;29;20075;-49
2022/06/28 09:16:11;;;;;;;6.38;0.88;;;21.20;56.00;;;;;;4915748;29;20075;-51
2022/06/28 09:18:38;;;;;;;2.35;0.60;;;21.20;56.30;;;;;;4913622;29;20334;-51
2022/06/28 09:21:08;;;;;;;2.22;1.00;;;21.30;56.50;;;;;;4907278;29;20044;-50
2022/06/28 09:23:38;;;;;;;3.53;0.85;;;21.30;55.90;;;;;;4909381;29;20048;-50
2022/06/28 09:26:22;;;;;;;2.80;0.70;;;21.40;56.30;;;;;;4913396;29;20040;-49
2022/06/28 09:28:51;;;;;;;2.55;0.65;;;21.50;55.80;;;;;;4914157;29;20052;-50
2022/06/28 09:31:20;;;;;;;1.45;0.68;;;21.50;55.30;;;;;;4897387;29;20055;-48
2022/06/28 09:34:02;;;;;;;1.60;0.60;;;21.60;55.50;;;;;;4909339;29;20052;-48
2022/06/28 09:36:41;;;;;;;1.48;0.50;;;21.60;55.70;;;;;;4905122;29;20048;-52
2022/06/28 09:39:16;;;;;;;0.93;0.50;;;21.70;55.70;;;;;;4913263;29;20044;-53
2022/06/28 09:41:46;;;;;;;2.70;1.00;;;21.80;55.50;;;;;;4904837;29;20068;-52
2022/06/28 09:44:33;;;;;;;2.20;0.80;;;21.90;56.10;;;;;;4919593;29;20069;-52
2022/06/28 09:47:00;;;;;;;5.60;0.90;;;22.00;56.30;;;;;;4910904;29;20056;-49
2022/06/28 09:49:29;;;;;;;1.80;0.43;;;22.00;55.50;;;;;;4911963;29;20044;-52
2022/06/28 09:51:58;;;;;;;2.38;0.60;;;22.10;55.20;;;;;;4906277;29;20115;-53
2022/06/28 09:54:31;;;;;;;1.42;0.60;;;22.20;54.10;;;;;;4913221;29;20048;-50
2022/06/28 09:56:59;;;;;;;2.70;0.55;;;22.20;53.90;;;;;;4922452;29;20106;-52
2022/06/28 09:59:28;;;;;;;1.42;0.82;;;22.30;53.20;;;;;;4926981;29;20051;-51
2022/06/28 10:01:56;;;;;;;1.05;0.60;;;22.30;52.70;;;;;;4913348;29;20048;-53
2022/06/28 10:04:25;;;;;;;1.02;0.55;;;22.30;53.70;;;;;;4913989;29;20040;-50
2022/06/28 10:06:52;;;;;;;1.95;0.80;;;22.40;53.90;;;;;;4918172;29;20516;-48
2022/06/28 10:09:20;;;;;;;1.40;0.90;;;22.40;53.90;;;;;;4895384;29;20040;-51
2022/06/28 10:17:46;;;;;;;1.38;0.63;;;22.60;52.90;;;;;;4913253;29;20140;-50
2022/06/28 10:20:24;;;;;;;1.65;0.52;;;22.60;51.00;;;;;;4911632;29;20076;-51
2022/06/28 10:22:52;;;;;;;3.35;0.77;;;22.70;52.80;;;;;;4917465;29;20464;-49
2022/06/28 10:25:25;;;;;;;1.20;0.63;;;22.70;53.30;;;;;;4879730;29;20052;-51
2022/06/28 10:27:53;;;;;;;0.82;0.77;;;22.80;53.50;;;;;;4908660;29;20040;-48
2022/06/28 10:30:21;;;;;;;0.82;0.32;;;22.90;52.80;;;;;;4914034;29;20099;-53
2022/06/28 10:32:52;;;;;;;2.83;0.57;;;22.90;52.00;;;;;;4915509;29;20043;-53
2022/06/28 10:35:31;;;;;;;2.90;0.70;;;22.90;51.50;;;;;;4911459;29;20528;-50
2022/06/28 10:38:07;;;;;;;1.70;0.47;;;23.00;52.30;;;;;;4910532;29;20388;-48
2022/06/28 10:40:49;;;;;;;1.38;0.50;;;23.00;50.70;;;;;;4913725;29;20043;-50
2022/06/28 10:43:25;;;;;;;2.03;0.90;;;23.10;50.70;;;;;;4912398;29;20044;-51
2022/06/28 10:46:07;;;;;;;5.20;0.90;;;23.20;50.90;;;;;;4911155;29;20067;-51
2022/06/28 10:48:49;;;;;;;3.72;0.60;;;23.20;52.10;;;;;;4913521;29;20068;-48
2022/06/28 10:51:20;;;;;;;2.08;0.73;;;23.30;52.70;;;;;;4914314;29;20056;-47
2022/06/28 10:54:02;;;;;;;0.93;0.40;;;23.40;52.50;;;;;;4915394;29;20056;-52
2022/06/28 10:56:29;;;;;;;1.52;0.50;;;23.40;50.80;;;;;;4910700;29;20064;-45
2022/06/28 10:59:05;;;;;;;0.90;0.60;;;23.50;50.40;;;;;;4918011;29;20111;-48
2022/06/28 11:01:43;;;;;;;0.55;0.47;;;23.70;49.90;;;;;;4915867;29;20109;-47
2022/06/28 11:04:18;;;;;;;2.22;0.52;;;23.80;49.00;;;;;;4916907;29;20047;-48
2022/06/28 11:06:47;;;;;;;4.55;0.70;;;23.90;49.60;;;;;;4909162;29;20051;-48
2022/06/28 11:09:32;;;;;;;2.08;0.95;;;24.00;49.30;;;;;;4913501;29;20047;-48
2022/06/28 11:12:13;;;;;;;2.25;0.52;;;24.10;47.90;;;;;;4913179;29;20527;-48
2022/06/28 11:14:48;;;;;;;2.35;0.80;;;24.30;48.60;;;;;;4914191;29;20123;-49
2022/06/28 11:17:20;;;;;;;1.15;0.52;;;24.40;48.90;;;;;;4914339;29;20091;-49
2022/06/28 11:19:53;;;;;;;3.08;0.70;;;24.60;49.10;;;;;;4914302;29;20048;-47
2022/06/28 11:22:28;;;;;;;2.63;0.52;;;24.70;48.50;;;;;;4914176;29;20040;-49
2022/06/28 11:24:58;;;;;;;1.00;0.50;;;24.80;47.30;;;;;;4911566;29;20051;-50
2022/06/28 11:27:26;;;;;;;3.10;0.60;;;24.90;47.10;;;;;;4913752;29;20048;-50
2022/06/28 11:29:59;;;;;;;0.65;0.40;;;24.90;47.80;;;;;;4962578;23;20074;-45
2022/06/28 11:32:31;;;;;;;2.53;1.30;;;24.90;46.00;;;;;;4915082;29;20048;-47
2022/06/28 11:35:06;;;;;;;1.65;0.60;;;24.90;47.20;;;;;;4911675;29;20468;-47
2022/06/28 11:37:47;;;;;;;4.07;0.70;;;25.00;47.30;;;;;;4908755;29;20032;-46
2022/06/28 11:40:15;;;;;;;2.65;0.95;;;25.10;47.30;;;;;;4914402;29;20058;-51
2022/06/28 11:42:43;;;;;;;1.02;0.50;;;25.20;46.20;;;;;;4911371;29;20206;-47
2022/06/28 11:45:15;;;;;;;1.67;0.73;;;25.30;46.90;;;;;;4913644;29;20044;-46
2022/06/28 11:47:43;;;;;;;1.23;0.50;;;25.40;45.60;;;;;;4914994;29;20039;-46
2022/06/28 11:50:18;;;;;;;3.85;0.45;;;25.60;45.80;;;;;;4913458;29;20041;-47
2022/06/28 11:52:51;;;;;;;1.45;1.00;;;25.60;45.70;;;;;;4909064;29;20045;-50
2022/06/28 11:55:19;;;;;;;2.47;0.45;;;25.70;46.30;;;;;;4913773;29;20044;-48
2022/06/28 11:58:06;;;;;;;1.33;0.35;;;25.80;46.70;;;;;;4916440;29;20167;-47
2022/06/28 12:00:33;;;;;;;0.70;0.50;;;25.90;45.30;;;;;;4910939;29;20040;-51
2022/06/28 12:03:04;;;;;;;2.00;0.60;;;26.00;44.20;;;;;;4913062;29;20048;-50
2022/06/28 12:05:37;;;;;;;1.10;0.88;;;26.10;44.50;;;;;;4914699;29;20052;-50
2022/06/28 12:08:04;;;;;;;1.35;0.65;;;26.20;44.40;;;;;;4909467;29;20416;-51
2022/06/28 12:10:32;;;;;;;1.60;0.60;;;26.20;43.50;;;;;;4913264;29;20046;-48
2022/06/28 12:13:09;;;;;;;1.40;0.50;;;26.40;43.30;;;;;;4910394;29;20072;-45
2022/06/28 12:15:36;;;;;;;2.05;0.57;;;26.40;42.90;;;;;;4913788;29;20487;-45
2022/06/28 12:18:05;;;;;;;1.55;0.43;;;26.60;43.60;;;;;;4914628;29;20032;-50
2022/06/28 12:20:33;;;;;;;1.00;0.55;;;26.70;42.70;;;;;;4911705;29;20048;-47
2022/06/28 12:23:05;;;;;;;2.15;0.80;;;26.80;42.20;;;;;;4906995;29;20048;-48
2022/06/28 12:25:33;;;;;;;2.05;0.50;;;26.90;42.60;;;;;;4913853;29;20091;-49
2022/06/28 12:28:00;;;;;;;1.92;0.40;;;26.90;42.70;;;;;;4898505;29;20045;-49
2022/06/28 12:30:27;;;;;;;2.67;0.75;;;27.10;43.00;;;;;;4901097;29;20057;-47
2022/06/28 12:32:58;;;;;;;2.65;0.73;;;27.10;42.40;;;;;;4913570;29;20050;-46
2022/06/28 12:35:25;;;;;;;2.85;0.65;;;27.30;42.10;;;;;;4905281;29;20099;-46
2022/06/28 12:37:53;;;;;;;1.80;0.55;;;27.30;42.00;;;;;;4910220;29;20452;-44
2022/06/28 12:40:21;;;;;;;1.83;0.40;;;27.40;42.70;;;;;;4905556;29;20556;-46
2022/06/28 12:42:48;;;;;;;2.17;0.65;;;27.60;41.30;;;;;;4906155;29;20048;-46
2022/06/28 12:45:15;;;;;;;1.00;0.85;;;27.70;41.90;;;;;;4894373;29;20056;-45
2022/06/28 12:47:42;;;;;;;1.33;0.38;;;27.90;41.80;;;;;;4901301;29;20107;-45
2022/06/28 12:50:16;;;;;;;1.00;0.60;;;28.00;41.10;;;;;;4909161;29;20456;-47
2022/06/28 12:52:45;;;;;;;0.93;0.68;;;28.10;40.40;;;;;;4913628;29;20048;-45
2022/06/28 12:55:12;;;;;;;1.50;0.70;;;28.30;40.00;;;;;;4917225;29;20055;-48
2022/06/28 12:57:39;;;;;;;1.27;0.68;;;28.50;38.90;;;;;;4910133;29;20068;-48
2022/06/28 13:00:09;;;;;;;0.50;0.47;;;28.60;39.40;;;;;;4905272;29;20048;-50
2022/06/28 13:02:36;;;;;;;3.90;0.60;;;28.70;39.00;;;;;;4910250;29;20044;-46
2022/06/28 13:05:03;;;;;;;1.92;0.82;;;28.80;39.70;;;;;;4913095;29;20041;-44
2022/06/28 13:07:30;;;;;;;3.03;0.82;;;28.90;39.60;;;;;;4906103;29;21013;-44
2022/06/28 13:09:57;;;;;;;2.40;0.47;;;29.10;38.30;;;;;;4911585;29;20056;-46
2022/06/28 13:12:23;;;;;;;1.10;0.55;;;29.20;37.60;;;;;;4913150;29;20044;-43
2022/06/28 13:14:56;;;;;;;1.08;0.40;;;29.30;37.10;;;;;;4912013;29;20059;-44
2022/06/28 13:17:23;;;;;;;2.13;0.60;;;29.30;38.00;;;;;;4912719;29;20099;-49
2022/06/28 13:19:53;;;;;;;1.92;0.32;;;29.50;39.00;;;;;;4906952;29;20044;-45
2022/06/28 13:22:41;;;;;;;1.38;0.43;;;29.70;38.90;;;;;;4916604;29;20054;-45
2022/06/28 13:25:08;;;;;;;1.17;0.43;;;29.90;39.20;;;;;;4918573;29;20451;-47
2022/06/28 13:27:35;;;;;;;1.10;0.50;;;30.20;38.90;;;;;;4914618;29;20123;-45